createdAt,value
2023-03-24T00:01:38.522Z,2.00
2023-03-24T00:04:37.977Z,2.13
2023-03-24T00:12:10.182Z,2.00
2023-03-24T00:16:03.152Z,2.30
2023-03-24T00:18:28.368Z,2.20
2023-03-24T00:27:19.057Z,2.20
2023-03-24T00:33:25.573Z,2.00
2023-03-24T00:36:26.350Z,2.10
2023-03-24T00:38:54.192Z,1.97
2023-03-24T00:42:07.890Z,1.90
2023-03-24T00:44:48.736Z,1.87
2023-03-24T00:50:41.115Z,1.90
2023-03-24T00:56:44.609Z,1.80
2023-03-24T01:03:06.823Z,1.87
2023-03-24T01:05:58.126Z,1.90
2023-03-24T01:09:21.027Z,2.00
2023-03-24T01:12:02.586Z,1.93
2023-03-24T01:17:53.589Z,1.80
2023-03-24T01:21:06.307Z,1.90
2023-03-24T01:26:53.559Z,2.17
2023-03-24T01:32:23.715Z,2.00
2023-03-24T01:34:54.301Z,2.13
2023-03-24T01:37:42.697Z,1.90
2023-03-24T01:52:46.062Z,2.10
2023-03-24T02:09:26.371Z,2.37
2023-03-24T02:16:50.224Z,2.10
2023-03-24T02:27:45.828Z,2.20
2023-03-24T02:31:31.683Z,2.43
2023-03-24T02:35:01.414Z,2.40
2023-03-24T02:38:16.094Z,2.50
2023-03-24T02:49:10.426Z,2.63
2023-03-24T02:52:37.027Z,2.70
2023-03-24T02:56:06.217Z,2.20
2023-03-24T03:02:59.887Z,2.50
2023-03-24T03:09:22.973Z,2.30
2023-03-24T03:12:13.244Z,2.63
2023-03-24T03:15:40.103Z,2.80
2023-03-24T03:22:21.613Z,2.33
2023-03-24T03:25:01.638Z,2.40
2023-03-24T03:27:55.404Z,2.20
2023-03-24T03:30:43.833Z,2.27
2023-03-24T03:37:30.337Z,2.33
2023-03-24T03:41:20.174Z,2.40
2023-03-24T03:44:41.780Z,2.40
2023-03-24T03:50:23.527Z,2.50
2023-03-24T03:53:05.073Z,2.37
2023-03-24T03:55:47.531Z,2.13
2023-03-24T03:58:34.305Z,2.17
2023-03-24T04:01:16.017Z,2.13
2023-03-24T04:08:03.725Z,2.10
2023-03-24T04:11:07.087Z,2.00
2023-03-24T04:14:32.492Z,1.80
2023-03-24T04:18:24.150Z,1.63
2023-03-24T04:21:16.577Z,1.40
2023-03-24T04:24:07.880Z,1.27
2023-03-24T04:26:43.280Z,1.40
2023-03-24T04:29:58.426Z,1.40
2023-03-24T04:36:48.273Z,1.90
2023-03-24T04:39:26.843Z,1.50
2023-03-24T04:42:25.183Z,1.53
2023-03-24T04:45:01.738Z,1.60
2023-03-24T04:47:40.768Z,1.50
2023-03-24T04:50:18.870Z,1.60
2023-03-24T04:53:00.819Z,1.83
2023-03-24T04:56:14.711Z,1.40
2023-03-24T04:58:43.577Z,1.40
2023-03-24T05:01:12.212Z,1.33
2023-03-24T05:03:42.823Z,1.50
2023-03-24T05:06:10.804Z,1.43
2023-03-24T05:08:38.151Z,1.60
2023-03-24T05:11:08.053Z,1.73
2023-03-24T05:13:45.318Z,1.50
2023-03-24T05:16:18.293Z,1.50
2023-03-24T05:18:57.894Z,1.40
2023-03-24T05:21:33.338Z,1.80
2023-03-24T05:24:07.913Z,1.50
2023-03-24T05:26:39.219Z,1.80
2023-03-24T05:29:06.685Z,1.53
2023-03-24T05:31:35.526Z,1.57
2023-03-24T05:34:05.120Z,1.80
2023-03-24T05:36:33.894Z,1.73
2023-03-24T05:39:01.516Z,1.93
2023-03-24T05:41:30.520Z,1.80
2023-03-24T05:44:07.802Z,1.80
2023-03-24T05:46:52.614Z,1.90
2023-03-24T05:49:27.242Z,1.87
2023-03-24T05:52:01.477Z,1.90
2023-03-24T05:54:36.208Z,1.60
2023-03-24T05:57:19.804Z,1.70
2023-03-24T05:59:59.581Z,1.70
2023-03-24T06:02:27.883Z,2.00
2023-03-24T06:05:05.473Z,2.33
2023-03-24T06:07:41.292Z,2.57
2023-03-24T06:10:24.820Z,1.87
2023-03-24T06:13:00.859Z,1.70
2023-03-24T06:15:28.430Z,1.80
2023-03-24T06:17:58.559Z,1.63
2023-03-24T06:20:36.149Z,1.90
2023-03-24T06:23:10.792Z,1.73
2023-03-24T06:25:47.081Z,1.80
2023-03-24T06:28:27.275Z,1.80
2023-03-24T06:31:05.965Z,1.90
2023-03-24T06:33:40.576Z,2.30
2023-03-24T06:36:13.281Z,2.10
2023-03-24T06:38:44.286Z,2.10
2023-03-24T06:41:17.439Z,2.27
2023-03-24T06:43:48.890Z,2.07
2023-03-24T06:46:19.973Z,2.33
2023-03-24T06:48:50.872Z,2.10
2023-03-24T06:51:21.183Z,2.20
2023-03-24T06:53:49.156Z,2.10
2023-03-24T06:56:21.254Z,2.10
2023-03-24T06:58:49.742Z,2.20
2023-03-24T07:01:17.799Z,2.10
2023-03-24T07:03:46.656Z,1.83
2023-03-24T07:06:14.942Z,2.13
2023-03-24T07:08:42.854Z,2.30
2023-03-24T07:11:26.633Z,1.87
2023-03-24T07:13:54.200Z,2.10
2023-03-24T07:16:21.673Z,2.17
2023-03-24T07:18:58.286Z,2.10
2023-03-24T07:21:36.296Z,2.37
2023-03-24T07:24:05.196Z,1.73
2023-03-24T07:26:38.915Z,2.13
2023-03-24T07:29:08.040Z,2.20
2023-03-24T07:31:39.582Z,2.07
2023-03-24T07:34:13.011Z,1.93
2023-03-24T07:36:44.438Z,1.97
2023-03-24T07:39:14.769Z,1.90
2023-03-24T07:41:43.774Z,2.20
2023-03-24T07:44:15.540Z,2.10
2023-03-24T07:46:48.189Z,2.30
2023-03-24T07:49:28.979Z,2.30
2023-03-24T07:52:01.975Z,2.30
2023-03-24T07:54:29.333Z,2.47
2023-03-24T07:56:57.419Z,2.80
2023-03-24T07:59:26.839Z,2.10
2023-03-24T08:02:00.197Z,2.57
2023-03-24T08:04:35.138Z,2.33
2023-03-24T08:07:06.026Z,2.90
2023-03-24T08:09:37.696Z,2.90
2023-03-24T08:12:17.345Z,2.70
2023-03-24T08:14:49.928Z,2.30
2023-03-24T08:17:18.049Z,2.50
2023-03-24T08:19:58.145Z,2.70
2023-03-24T08:22:27.883Z,2.50
2023-03-24T08:24:55.950Z,2.93
2023-03-24T08:27:26.009Z,2.50
2023-03-24T08:29:54.400Z,2.67
2023-03-24T08:32:28.374Z,2.30
2023-03-24T08:35:05.362Z,2.70
2023-03-24T08:37:38.814Z,2.77
2023-03-24T08:40:08.269Z,2.47
2023-03-24T08:42:39.435Z,3.17
2023-03-24T08:45:08.598Z,2.83
2023-03-24T08:47:37.055Z,3.07
2023-03-24T08:50:14.758Z,2.87
2023-03-24T08:52:42.341Z,2.60
2023-03-24T08:55:10.574Z,2.53
2023-03-24T08:57:42.878Z,2.37
2023-03-24T09:00:25.993Z,2.40
2023-03-24T09:03:01.566Z,2.57
2023-03-24T09:05:44.766Z,2.67
2023-03-24T09:08:25.532Z,2.23
2023-03-24T09:11:01.984Z,2.50
2023-03-24T09:13:32.797Z,2.27
2023-03-24T09:16:08.633Z,2.63
2023-03-24T09:18:37.863Z,2.67
2023-03-24T09:21:10.727Z,2.50
2023-03-24T09:23:47.608Z,2.53
2023-03-24T09:26:23.970Z,2.17
2023-03-24T09:28:53.593Z,2.53
2023-03-24T09:31:31.683Z,2.03
2023-03-24T09:34:04.441Z,2.13
2023-03-24T09:36:33.686Z,2.37
2023-03-24T09:39:04.129Z,2.33
2023-03-24T09:41:34.388Z,2.33
2023-03-24T09:44:52.356Z,2.10
2023-03-24T09:47:30.227Z,1.70
2023-03-24T09:50:32.188Z,2.20
2023-03-24T09:53:41.513Z,2.40
2023-03-24T09:56:19.254Z,2.23
2023-03-24T09:59:33.240Z,1.80
2023-03-24T10:02:24.263Z,1.77
2023-03-24T10:05:00.030Z,2.17
2023-03-24T10:08:01.973Z,1.83
2023-03-24T10:10:48.347Z,2.07
2023-03-24T10:14:26.785Z,1.97
2023-03-24T10:17:27.773Z,2.10
2023-03-24T10:20:13.102Z,2.13
2023-03-24T10:23:15.558Z,2.13
2023-03-24T10:26:11.501Z,1.97
2023-03-24T10:29:02.410Z,2.03
2023-03-24T10:31:36.267Z,2.00
2023-03-24T10:34:09.769Z,2.10
2023-03-24T10:36:43.799Z,2.10
2023-03-24T10:39:22.431Z,1.90
2023-03-24T10:41:57.900Z,2.30
2023-03-24T10:44:30.604Z,1.83
2023-03-24T10:47:05.098Z,2.00
2023-03-24T10:49:36.245Z,1.80
2023-03-24T10:52:17.212Z,2.27
2023-03-24T10:54:57.730Z,2.27
2023-03-24T10:57:33.374Z,2.37
2023-03-24T11:00:42.679Z,2.00
2023-03-24T11:03:29.508Z,2.10
2023-03-24T11:06:09.189Z,1.83
2023-03-24T11:08:42.478Z,2.03
2023-03-24T11:11:38.906Z,2.40
2023-03-24T11:14:31.841Z,2.47
2023-03-24T11:17:22.018Z,1.93
2023-03-24T11:20:00.029Z,2.23
2023-03-24T11:23:04.029Z,1.83
2023-03-24T11:25:47.208Z,2.00
2023-03-24T11:28:27.188Z,2.00
2023-03-24T11:30:56.249Z,2.30
2023-03-24T11:33:38.183Z,2.00
2023-03-24T11:36:30.997Z,2.27
2023-03-24T11:39:28.248Z,1.97
2023-03-24T11:42:11.189Z,2.10
2023-03-24T11:44:38.664Z,1.83
2023-03-24T11:47:28.270Z,1.93
2023-03-24T11:50:11.207Z,2.20
2023-03-24T11:53:04.601Z,1.90
2023-03-24T11:55:54.664Z,2.20
2023-03-24T11:58:49.442Z,2.50
2023-03-24T12:01:25.899Z,2.07
2023-03-24T12:08:18.006Z,1.87
2023-03-24T12:11:44.128Z,1.57
2023-03-24T12:14:11.661Z,1.90
2023-03-24T12:17:28.015Z,1.90
2023-03-24T12:20:48.454Z,1.80
2023-03-24T12:23:37.942Z,1.80
2023-03-24T12:26:28.570Z,1.60
2023-03-24T12:30:08.894Z,1.80
2023-03-24T12:33:33.636Z,2.07
2023-03-24T12:36:32.066Z,2.10
2023-03-24T12:42:52.511Z,2.20
2023-03-24T12:46:03.897Z,2.67
2023-03-24T12:49:16.503Z,2.70
2023-03-24T12:52:17.530Z,2.57
2023-03-24T12:55:30.513Z,2.30
2023-03-24T12:58:22.404Z,2.50
2023-03-24T13:01:40.966Z,2.33
2023-03-24T13:04:42.142Z,2.40
2023-03-24T13:07:32.602Z,1.80
2023-03-24T13:10:54.585Z,2.10
2023-03-24T13:14:04.251Z,1.13
2023-03-24T13:18:19.144Z,1.17
2023-03-24T13:21:34.362Z,1.00
2023-03-24T13:24:56.921Z,1.10
2023-03-24T13:27:39.424Z,1.20
2023-03-24T13:30:29.366Z,1.03
2023-03-24T13:33:18.063Z,1.23
2023-03-24T13:36:35.123Z,1.13
2023-03-24T13:39:21.276Z,1.30
2023-03-24T13:41:56.311Z,1.47
2023-03-24T13:44:31.058Z,1.37
2023-03-24T13:47:09.834Z,1.37
2023-03-24T13:49:42.817Z,1.10
2023-03-24T13:52:52.777Z,1.40
2023-03-24T13:56:16.129Z,1.23
2023-03-24T13:59:33.208Z,0.90
2023-03-24T14:03:27.650Z,1.10
2023-03-24T14:14:58.636Z,1.10
2023-03-24T14:40:02.880Z,1.67
2023-03-24T14:42:39.022Z,1.80
2023-03-24T14:49:57.463Z,1.70
2023-03-24T14:56:19.180Z,1.83
2023-03-24T14:58:56.416Z,1.97
2023-03-24T15:01:37.286Z,1.93
2023-03-24T15:04:13.783Z,1.70
2023-03-24T15:07:16.338Z,1.80
2023-03-24T15:10:42.201Z,1.80
2023-03-24T15:18:25.055Z,1.80
2023-03-24T15:46:34.518Z,1.20
2023-03-24T15:49:25.865Z,1.13
2023-03-24T15:52:59.745Z,1.00
2023-03-24T15:55:45.896Z,1.20
2023-03-24T15:59:24.001Z,1.10
2023-03-24T16:08:54.454Z,1.10
2023-03-24T16:12:41.852Z,1.07
2023-03-24T16:19:28.446Z,1.27
2023-03-24T16:22:50.534Z,1.27
2023-03-24T16:32:36.518Z,1.40
2023-03-24T16:35:07.544Z,1.10
2023-03-24T16:41:17.831Z,1.43
2023-03-24T16:44:24.209Z,1.03
2023-03-24T16:47:23.753Z,1.60
2023-03-24T16:49:58.756Z,1.17
2023-03-24T16:55:15.521Z,1.83
2023-03-24T16:59:01.714Z,1.43
2023-03-24T17:05:33.313Z,1.30
2023-03-24T17:11:06.026Z,1.47
2023-03-24T17:14:29.276Z,1.10
2023-03-24T17:17:21.232Z,1.40
2023-03-24T17:19:48.675Z,1.30
2023-03-24T17:22:38.644Z,1.40
2023-03-24T17:31:11.352Z,1.40
2023-03-24T17:36:52.287Z,1.40
2023-03-24T17:43:37.348Z,1.30
2023-03-24T17:46:29.637Z,1.67
2023-03-24T17:49:20.340Z,1.77
2023-03-24T17:52:19.414Z,1.63
2023-03-24T17:55:08.860Z,1.63
2023-03-24T18:03:58.578Z,1.97
2023-03-24T18:06:52.271Z,2.10
2023-03-24T18:10:36.523Z,1.90
2023-03-24T18:16:22.243Z,1.67
2023-03-24T18:19:02.981Z,1.67
2023-03-24T18:24:28.020Z,1.80
2023-03-24T18:27:16.842Z,2.00
2023-03-24T18:38:23.566Z,1.67
2023-03-24T18:44:15.920Z,1.60
2023-03-24T18:53:04.546Z,1.57
2023-03-24T18:56:28.688Z,1.87
2023-03-24T18:58:59.160Z,1.57
2023-03-24T19:02:38.089Z,1.60
2023-03-24T19:05:29.656Z,1.33
2023-03-24T19:08:19.867Z,1.50
2023-03-24T19:11:08.868Z,1.60
2023-03-24T19:14:33.684Z,1.20
2023-03-24T19:18:05.796Z,1.20
2023-03-24T19:20:42.474Z,1.30
2023-03-24T19:29:53.230Z,1.13
2023-03-24T19:32:50.818Z,1.20
2023-03-24T19:41:37.278Z,1.10
2023-03-24T19:48:38.212Z,1.07
2023-03-24T19:51:29.659Z,1.10
2023-03-24T19:57:19.325Z,1.47
2023-03-24T20:00:50.516Z,1.10
2023-03-24T20:03:25.447Z,1.10
2023-03-24T20:05:53.402Z,1.40
2023-03-24T20:12:23.741Z,1.23
2023-03-24T20:15:28.295Z,1.40
2023-03-24T20:23:59.234Z,1.40
2023-03-24T20:29:27.068Z,1.23
2023-03-24T20:41:05.071Z,1.10
2023-03-24T20:43:55.718Z,1.00
2023-03-24T20:46:23.201Z,1.00
2023-03-24T20:52:37.576Z,1.00
2023-03-24T20:55:19.546Z,1.30
2023-03-24T20:57:54.153Z,1.20
2023-03-24T21:00:43.354Z,1.40
2023-03-24T21:03:51.590Z,1.20
2023-03-24T21:12:56.949Z,1.00
2023-03-24T21:22:43.539Z,1.10
2023-03-24T21:25:34.618Z,1.10
2023-03-24T21:28:25.226Z,1.10
2023-03-24T21:30:52.708Z,1.10
2023-03-24T21:37:21.654Z,1.10
2023-03-24T21:43:20.551Z,1.40
2023-03-24T21:52:24.470Z,1.30
2023-03-24T22:05:42.911Z,1.10
2023-03-24T22:19:32.447Z,1.00
2023-03-24T22:28:05.573Z,1.47
2023-03-24T22:33:30.917Z,1.90
2023-03-24T22:43:16.017Z,1.40
2023-03-24T23:01:19.937Z,1.40
2023-03-24T23:04:03.346Z,1.10
2023-03-24T23:06:53.309Z,1.10
2023-03-24T23:13:39.304Z,1.10
2023-03-24T23:19:46.064Z,1.07
2023-03-24T23:22:13.482Z,1.30
2023-03-24T23:25:50.936Z,1.57
2023-03-24T23:36:19.119Z,1.03
2023-03-24T23:59:52.270Z,1.70
